Time;durP1;ratioP1;P1;durP2;ratioP2;P2;SDS_P1;SDS_P2;PMS_P1;PMS_P2;Temp;Humidity;BMP_temperature;BMP_pressure;BME280_temperature;BME280_humidity;BME280_pressure;Samples;Min_cycle;Max_cycle;Signal;HPM_P1;HPM_P2
2020/12/18 00:01:09;;;;;;;27.20;11.87;;;;;;;14.46;74.25;101985.34;5030667;28;20065;-59
2020/12/18 00:03:35;;;;;;;26.27;12.80;;;;;;;14.45;74.29;101989.06;5031279;28;20116;-60
2020/12/18 00:06:01;;;;;;;28.20;11.68;;;;;;;14.47;74.30;101987.81;5030923;28;20096;-60
2020/12/18 00:08:26;;;;;;;22.03;11.00;;;;;;;14.67;71.85;101979.09;5031621;28;20069;-60
2020/12/18 00:10:52;;;;;;;33.43;12.40;;;;;;;14.80;70.46;101985.66;5030787;28;20037;-60
2020/12/18 00:13:17;;;;;;;29.67;11.17;;;;;;;14.40;74.80;101970.78;5031532;28;20517;-60
2020/12/18 00:15:43;;;;;;;23.33;11.37;;;;;;;14.73;71.56;101975.63;5030105;28;20079;-60
2020/12/18 00:18:08;;;;;;;25.07;11.60;;;;;;;14.82;70.59;101970.94;5030596;28;20069;-60
2020/12/18 00:20:33;;;;;;;31.87;12.03;;;;;;;14.45;74.12;101976.41;5031789;28;20452;-61
2020/12/18 00:22:59;;;;;;;24.43;11.63;;;;;;;14.33;74.73;101972.59;5029165;28;20116;-61
2020/12/18 00:25:24;;;;;;;28.77;12.03;;;;;;;14.09;75.87;101974.63;5029474;28;20457;-61
2020/12/18 00:27:50;;;;;;;19.40;10.27;;;;;;;13.75;79.07;101968.03;5021287;28;20092;-59
2020/12/18 00:30:15;;;;;;;25.63;11.83;;;;;;;14.20;77.33;101979.50;5011462;28;20052;-60
2020/12/18 00:32:42;;;;;;;26.23;12.00;;;;;;;13.85;79.52;101976.66;5011031;28;20034;-60
2020/12/18 00:35:10;;;;;;;24.83;11.05;;;;;;;14.00;78.38;101968.53;5017739;28;20486;-60
2020/12/18 00:37:36;;;;;;;26.45;12.90;;;;;;;14.04;76.93;101968.97;5030681;28;20430;-59
2020/12/18 00:40:04;;;;;;;25.15;12.02;;;;;;;13.86;78.32;101972.94;5030035;28;20068;-59
2020/12/18 00:42:30;;;;;;;25.63;11.40;;;;;;;13.94;77.75;101965.78;5031013;28;20042;-60
2020/12/18 00:44:56;;;;;;;26.03;11.37;;;;;;;14.57;71.36;101949.00;5030304;28;20113;-60
2020/12/18 00:47:21;;;;;;;28.40;11.75;;;;;;;14.15;75.77;101964.94;5030917;28;20339;-59
2020/12/18 00:49:47;;;;;;;24.25;12.77;;;;;;;14.20;74.37;101957.16;5030811;28;20465;-61
2020/12/18 00:52:13;;;;;;;21.97;9.77;;;;;;;13.94;77.01;101971.16;5030124;28;20124;-60
2020/12/18 00:54:38;;;;;;;25.03;11.33;;;;;;;14.03;76.52;101968.16;5029566;28;20396;-59
2020/12/18 00:57:04;;;;;;;30.17;12.63;;;;;;;13.96;76.33;101958.34;5028886;28;20038;-60
2020/12/18 00:59:29;;;;;;;25.10;11.70;;;;;;;13.73;79.10;101960.19;5031441;28;20048;-61
2020/12/18 01:02:03;;;;;;;28.50;12.23;;;;;;;14.02;76.29;101957.56;5028457;28;20033;-60
2020/12/18 01:04:29;;;;;;;24.27;10.70;;;;;;;14.35;74.24;101965.16;5013030;28;20283;-60
2020/12/18 01:06:55;;;;;;;27.42;10.63;;;;;;;13.97;77.43;101966.25;5029199;28;20049;-60
2020/12/18 01:09:23;;;;;;;26.42;10.85;;;;;;;13.54;81.68;101972.34;5029709;28;20128;-60
2020/12/18 01:11:50;;;;;;;27.38;10.93;;;;;;;13.54;81.11;101950.84;5029567;28;20061;-60
2020/12/18 01:14:17;;;;;;;38.22;12.90;;;;;;;13.95;79.13;101962.06;5013833;28;20359;-61
2020/12/18 01:16:55;;;;;;;21.13;11.82;;;;;;;14.26;77.35;101964.44;5013088;28;20045;-61
2020/12/18 01:19:22;;;;;;;25.15;10.10;;;;;;;14.34;75.80;101966.19;5013206;28;20505;-60
2020/12/18 01:21:49;;;;;;;21.02;9.45;;;;;;;14.16;77.01;101969.31;5013137;28;20097;-62
2020/12/18 01:24:20;;;;;;;28.95;9.90;;;;;;;13.91;78.44;101957.06;5012639;28;20236;-60
2020/12/18 01:26:49;;;;;;;19.60;9.75;;;;;;;13.90;79.37;101973.38;5013528;28;20042;-60
2020/12/18 01:29:16;;;;;;;22.63;11.13;;;;;;;13.57;82.28;101969.28;5028970;28;20064;-60
2020/12/18 01:31:43;;;;;;;26.50;10.60;;;;;;;13.47;82.07;101952.63;5029268;28;20053;-60
2020/12/18 01:34:10;;;;;;;27.25;9.98;;;;;;;14.23;76.57;101975.59;5028857;28;20034;-60
2020/12/18 01:36:36;;;;;;;20.73;11.02;;;;;;;13.64;81.35;101965.84;5029698;28;20124;-60
2020/12/18 01:39:11;;;;;;;26.00;9.15;;;;;;;13.90;78.39;101971.53;5029054;28;20036;-60
2020/12/18 01:41:36;;;;;;;18.07;9.10;;;;;;;13.90;78.30;101968.00;5014341;28;20057;-60
2020/12/18 01:44:08;;;;;;;24.33;8.90;;;;;;;14.09;76.99;101974.63;5028615;28;20453;-60
2020/12/18 01:46:38;;;;;;;22.77;9.48;;;;;;;13.81;79.17;101969.97;5012627;28;20038;-60
2020/12/18 01:49:04;;;;;;;22.33;9.93;;;;;;;14.00;76.01;101962.31;5013356;28;20099;-61
2020/12/18 01:51:30;;;;;;;30.23;10.07;;;;;;;13.93;77.31;101974.88;5029018;28;20467;-60
2020/12/18 01:53:56;;;;;;;28.27;9.73;;;;;;;13.95;77.61;101970.13;5029337;28;20133;-60
2020/12/18 01:56:31;;;;;;;28.92;11.05;;;;;;;14.04;75.19;101961.75;5029462;28;20339;-61
2020/12/18 01:59:10;;;;;;;25.98;10.05;;;;;;;14.04;76.08;101966.28;5028162;28;20137;-61
2020/12/18 02:01:54;;;;;;;22.38;9.25;;;;;;;14.04;75.84;101971.66;5014103;28;20480;-62
2020/12/18 02:04:31;;;;;;;20.00;9.98;;;;;;;14.29;73.36;101969.44;5014225;28;20041;-61
2020/12/18 02:07:00;;;;;;;29.45;9.85;;;;;;;13.85;77.11;101944.41;5028997;28;20042;-60
2020/12/18 02:09:35;;;;;;;30.55;11.23;;;;;;;14.19;74.54;101956.31;5028597;28;20149;-60
2020/12/18 02:12:05;;;;;;;26.55;10.77;;;;;;;13.76;77.37;101954.44;5011336;28;20037;-61
2020/12/18 02:14:33;;;;;;;30.90;10.15;;;;;;;13.96;76.01;101953.81;5013671;28;20038;-59
2020/12/18 02:17:02;;;;;;;26.55;10.43;;;;;;;13.64;78.17;101950.53;5028029;28;20034;-59
2020/12/18 02:19:35;;;;;;;23.27;9.73;;;;;;;13.80;77.18;101954.03;5028833;28;20433;-60
2020/12/18 02:22:16;;;;;;;34.35;11.40;;;;;;;13.65;78.79;101948.72;5022771;28;20041;-59
2020/12/18 02:25:08;;;;;;;29.90;10.85;;;;;;;13.44;79.69;101944.94;5033625;28;20180;-59
2020/12/18 02:27:34;;;;;;;27.60;10.43;;;;;;;13.37;79.72;101933.22;5035816;28;20049;-60
2020/12/18 02:30:07;;;;;;;29.35;11.75;;;;;;;12.71;86.51;101959.81;5034419;28;20136;-61
2020/12/18 02:32:38;;;;;;;19.77;10.45;;;;;;;12.91;85.33;101935.09;5029540;28;20046;-61
2020/12/18 02:35:08;;;;;;;27.38;11.27;;;;;;;13.28;82.68;101941.41;5027818;28;20111;-60
2020/12/18 02:37:37;;;;;;;31.15;12.45;;;;;;;13.45;80.98;101928.63;5012013;28;20032;-60
2020/12/18 02:40:06;;;;;;;28.33;11.43;;;;;;;13.08;83.18;101921.50;5027673;28;20133;-60
2020/12/18 02:42:52;;;;;;;26.17;10.52;;;;;;;13.34;82.74;101937.13;5031505;28;20046;-60
2020/12/18 02:45:18;;;;;;;31.10;11.85;;;;;;;13.67;79.21;101930.53;5027595;28;20042;-60
2020/12/18 02:48:04;;;;;;;30.92;10.95;;;;;;;13.45;82.09;101946.59;5012132;28;20119;-60
2020/12/18 02:50:39;;;;;;;30.30;11.00;;;;;;;13.54;79.17;101923.16;5028274;28;20056;-61
2020/12/18 02:53:16;;;;;;;26.80;10.63;;;;;;;13.29;82.34;101934.19;5010636;28;20050;-59
2020/12/18 02:56:07;;;;;;;28.58;11.77;;;;;;;12.94;84.91;101932.06;5026216;28;20050;-61
2020/12/18 02:59:02;;;;;;;24.75;9.93;;;;;;;13.34;82.69;101937.94;5020174;28;20037;-61
2020/12/18 03:01:28;;;;;;;24.15;9.75;;;;;;;13.22;81.42;101926.03;5011682;28;20367;-60
2020/12/18 03:03:55;;;;;;;24.85;10.23;;;;;;;13.33;81.44;101933.59;5027512;28;20061;-62
2020/12/18 03:06:36;;;;;;;22.63;10.20;;;;;;;13.38;81.99;101934.88;5027623;28;20041;-60
2020/12/18 03:09:03;;;;;;;27.75;10.25;;;;;;;13.35;80.91;101920.00;5012367;28;20188;-61
2020/12/18 03:11:30;;;;;;;28.60;10.10;;;;;;;13.62;77.51;101937.31;5011147;28;20034;-60
2020/12/18 03:13:56;;;;;;;27.75;9.90;;;;;;;13.60;78.79;101936.63;5027426;28;20482;-61
2020/12/18 03:16:26;;;;;;;22.63;9.50;;;;;;;13.09;82.75;101936.59;5026921;28;20045;-60
2020/12/18 03:18:54;;;;;;;24.50;9.88;;;;;;;13.26;81.23;101924.63;5026653;28;20046;-60
2020/12/18 03:21:21;;;;;;;22.55;9.73;;;;;;;13.48;80.25;101928.22;5010416;28;20438;-60
2020/12/18 03:24:05;;;;;;;19.35;9.75;;;;;;;13.13;83.30;101927.13;5011505;28;20095;-53
2020/12/18 03:26:43;;;;;;;21.50;9.23;;;;;;;13.22;82.41;101931.41;5012288;28;20034;-60
2020/12/18 03:29:16;;;;;;;29.48;10.68;;;;;;;13.37;81.56;101922.47;5026844;28;20061;-60
2020/12/18 03:31:43;;;;;;;28.63;10.43;;;;;;;13.25;81.60;101914.91;5011050;28;20034;-60
2020/12/18 03:34:09;;;;;;;22.48;10.27;;;;;;;13.60;77.70;101933.97;5010431;28;20121;-60
2020/12/18 03:36:55;;;;;;;20.83;9.45;;;;;;;13.36;80.66;101936.94;5004678;28;20050;-60
2020/12/18 03:39:22;;;;;;;34.35;11.30;;;;;;;13.72;77.54;101911.97;5026588;28;20505;-62
2020/12/18 03:42:12;;;;;;;25.20;9.05;;;;;;;13.83;75.34;101918.72;5010106;28;20026;-59
2020/12/18 03:44:38;;;;;;;20.67;8.43;;;;;;;13.40;78.51;101911.38;5027127;28;20054;-60
2020/12/18 03:47:04;;;;;;;27.75;11.43;;;;;;;13.35;78.99;101917.31;5026996;28;20452;-60
2020/12/18 03:50:08;;;;;;;23.73;9.73;;;;;;;13.52;78.74;101919.81;5027480;28;20054;-60
2020/12/18 03:52:35;;;;;;;27.23;10.52;;;;;;;13.78;75.59;101913.88;5010358;28;20124;-61
2020/12/18 03:55:01;;;;;;;26.13;9.48;;;;;;;13.29;79.95;101931.50;5026903;28;20033;-60
2020/12/18 03:57:44;;;;;;;33.78;10.10;;;;;;;13.42;79.63;101930.84;5011806;28;20127;-59
2020/12/18 04:00:24;;;;;;;33.42;12.05;;;;;;;13.83;75.46;101932.97;5026313;28;20034;-60
2020/12/18 04:02:56;;;;;;;26.00;9.00;;;;;;;13.31;80.30;101930.28;5026955;28;20096;-60
2020/12/18 04:05:23;;;;;;;47.15;12.48;;;;;;;13.41;78.92;101918.41;5026282;28;20068;-59
2020/12/18 04:07:52;;;;;;;25.02;11.00;;;;;;;13.31;79.48;101916.84;5026929;28;20041;-61
2020/12/18 04:10:37;;;;;;;31.05;11.10;;;;;;;13.80;76.15;101911.84;5011502;28;20045;-59
2020/12/18 04:13:32;;;;;;;24.98;10.00;;;;;;;13.25;79.91;101920.28;5009636;28;20136;-60
2020/12/18 04:15:58;;;;;;;24.47;10.07;;;;;;;13.22;79.60;101917.97;5026883;28;20494;-60
2020/12/18 04:18:25;;;;;;;36.70;10.77;;;;;;;13.10;81.68;101922.97;5009678;28;20217;-59
2020/12/18 04:20:52;;;;;;;30.77;9.80;;;;;;;13.12;80.27;101920.09;5010451;28;20038;-60
2020/12/18 04:23:40;;;;;;;20.80;9.55;;;;;;;13.00;81.74;101907.16;5023453;28;20034;-59
2020/12/18 04:26:32;;;;;;;25.20;9.15;;;;;;;13.19;79.55;101910.28;5010982;28;20129;-60
2020/12/18 04:29:00;;;;;;;23.13;10.60;;;;;;;13.27;79.65;101910.19;5026142;28;20514;-60
2020/12/18 04:31:26;;;;;;;28.00;11.52;;;;;;;13.28;79.50;101902.97;5026305;28;20120;-61
2020/12/18 04:33:53;;;;;;;19.75;9.30;;;;;;;12.95;81.56;101906.03;5027634;28;20184;-60
2020/12/18 04:36:25;;;;;;;23.20;9.25;;;;;;;13.17;80.20;101902.41;5030036;28;20042;-61
2020/12/18 04:38:51;;;;;;;21.80;10.00;;;;;;;12.92;82.06;101901.88;5030438;28;20049;-60
2020/12/18 04:41:32;;;;;;;34.17;9.23;;;;;;;12.81;83.02;101878.16;5024663;28;20422;-61
2020/12/18 04:44:04;;;;;;;22.42;9.52;;;;;;;12.49;87.08;101883.69;5014124;28;20453;-61
2020/12/18 04:46:43;;;;;;;26.52;9.73;;;;;;;13.07;81.36;101899.19;5014095;28;20365;-61
2020/12/18 04:49:10;;;;;;;23.23;9.52;;;;;;;13.02;82.68;101885.47;5013737;28;20088;-59
2020/12/18 04:51:43;;;;;;;24.50;8.57;;;;;;;13.37;79.90;101882.19;5014706;28;20140;-60
2020/12/18 04:54:21;;;;;;;15.68;8.07;;;;;;;12.77;83.27;101881.22;5035627;28;20033;-59
2020/12/18 04:56:54;;;;;;;24.77;7.63;;;;;;;12.77;84.31;101875.00;5056229;28;20144;-60
2020/12/18 04:59:23;;;;;;;20.05;7.25;;;;;;;12.53;84.10;101863.50;5026729;28;20041;-59
2020/12/18 05:01:55;;;;;;;23.85;9.00;;;;;;;12.55;85.69;101879.44;5033753;28;20033;-60
2020/12/18 05:04:28;;;;;;;20.08;7.28;;;;;;;12.96;81.93;101873.63;5032679;28;20045;-60
2020/12/18 05:07:14;;;;;;;23.80;7.18;;;;;;;12.53;86.41;101879.59;5033189;28;20048;-56
2020/12/18 05:09:52;;;;;;;19.15;7.80;;;;;;;12.57;87.12;101888.97;5033278;28;20041;-59
2020/12/18 05:12:36;;;;;;;20.33;7.70;;;;;;;12.30;90.79;101877.00;5048993;28;20052;-60
2020/12/18 05:15:05;;;;;;;32.25;10.88;;;;;;;13.29;81.61;101888.50;5033317;28;20042;-61
2020/12/18 05:17:47;;;;;;;28.85;7.75;;;;;;;13.06;83.33;101894.84;5033166;28;20041;-60
2020/12/18 05:20:13;;;;;;;17.73;6.85;;;;;;;13.57;78.51;101896.72;5049644;28;20401;-61
2020/12/18 05:23:09;;;;;;;16.58;7.22;;;;;;;12.87;83.66;101877.41;5032558;28;20037;-61
2020/12/18 05:25:55;;;;;;;19.25;6.78;;;;;;;12.74;86.75;101884.28;5034304;28;20060;-60
2020/12/18 05:28:43;;;;;;;16.17;7.35;;;;;;;12.81;85.60;101883.53;5032416;28;20045;-60
2020/12/18 05:31:13;;;;;;;19.73;7.07;;;;;;;13.11;83.30;101881.69;5032870;28;20076;-60
2020/12/18 05:34:03;;;;;;;23.42;8.02;;;;;;;12.92;85.39;101877.72;5033755;28;20056;-60
2020/12/18 05:36:46;;;;;;;14.00;7.15;;;;;;;13.31;81.99;101864.97;5032802;28;20037;-60
2020/12/18 05:39:13;;;;;;;26.05;7.70;;;;;;;13.36;81.25;101867.06;5049098;28;20038;-61
2020/12/18 05:41:44;;;;;;;16.25;7.50;;;;;;;13.70;78.68;101860.25;5033412;28;20037;-61
2020/12/18 05:44:10;;;;;;;19.15;6.38;;;;;;;13.13;83.10;101851.94;5048975;28;20492;-60
2020/12/18 05:47:09;;;;;;;14.40;6.38;;;;;;;12.91;85.46;101860.75;5031975;28;20049;-61
2020/12/18 05:49:39;;;;;;;23.95;7.65;;;;;;;13.24;82.71;101866.72;5015658;28;20080;-60
2020/12/18 05:52:20;;;;;;;16.52;6.50;;;;;;;12.80;86.20;101855.03;5049217;28;20107;-61
2020/12/18 05:54:55;;;;;;;;;;;;;;;13.45;80.78;101857.94;5049417;28;20076;-61
2020/12/18 05:57:23;;;;;;;22.38;6.20;;;;;;;13.09;83.29;101842.59;5065137;28;19916;-62
2020/12/18 06:00:04;;;;;;;28.70;6.57;;;;;;;13.07;84.62;101855.38;5032335;28;20026;-61
2020/12/18 06:02:56;;;;;;;27.55;6.07;;;;;;;13.10;84.36;101850.47;5033827;28;20362;-60
2020/12/18 06:05:38;;;;;;;14.30;6.60;;;;;;;13.01;85.77;101832.78;5032010;28;20044;-60
2020/12/18 06:08:19;;;;;;;13.40;5.38;;;;;;;13.04;85.42;101837.81;5048752;28;20038;-61
2020/12/18 06:10:51;;;;;;;18.17;6.32;;;;;;;13.32;82.95;101839.78;5032126;28;20037;-61
2020/12/18 06:13:31;;;;;;;18.05;5.82;;;;;;;13.16;82.34;101822.84;5031570;28;20131;-61
2020/12/18 06:16:22;;;;;;;12.93;5.50;;;;;;;13.19;83.79;101841.28;5031488;28;20029;-56
2020/12/18 06:19:03;;;;;;;14.65;5.05;;;;;;;13.40;82.41;101833.47;5032125;28;20060;-61
2020/12/18 06:21:39;;;;;;;17.25;5.60;;;;;;;13.71;78.23;101818.91;5031071;28;20045;-59
2020/12/18 06:24:09;;;;;;;14.50;5.57;;;;;;;12.93;83.82;101838.25;5048423;28;20059;-60
2020/12/18 06:27:01;;;;;;;18.52;5.53;;;;;;;13.58;79.25;101839.25;5032127;28;20246;-60
2020/12/18 06:29:49;;;;;;;17.92;6.00;;;;;;;13.37;81.73;101839.19;5031670;28;20053;-61
2020/12/18 06:32:33;;;;;;;19.67;5.70;;;;;;;13.56;80.27;101838.59;5030637;28;20049;-61
2020/12/18 06:35:36;;;;;;;16.83;5.68;;;;;;;13.13;83.82;101842.03;5029576;28;20124;-60
2020/12/18 06:38:19;;;;;;;17.35;5.28;;;;;;;13.24;83.08;101842.56;5032485;28;20139;-58
2020/12/18 06:41:25;;;;;;;14.65;4.88;;;;;;;13.24;82.88;101834.50;5030037;28;20391;-60
2020/12/18 06:44:06;;;;;;;11.10;5.10;;;;;;;13.23;83.64;101847.09;5013074;28;20046;-60
2020/12/18 06:47:10;;;;;;;22.20;6.65;;;;;;;13.10;83.65;101830.81;5004896;28;20364;-60
2020/12/18 06:50:10;;;;;;;8.68;5.03;;;;;;;12.76;86.94;101815.13;5032463;28;20041;-61
2020/12/18 06:52:55;;;;;;;14.65;4.97;;;;;;;12.72;88.11;101819.22;5013654;28;20061;-60
2020/12/18 06:55:30;;;;;;;11.60;5.47;;;;;;;12.99;86.38;101830.28;5027662;28;20038;-60
2020/12/18 06:58:17;;;;;;;22.30;6.07;;;;;;;13.15;85.74;101833.81;5012966;28;20056;-60
2020/12/18 07:00:43;;;;;;;22.80;6.20;;;;;;;13.42;83.12;101826.03;5012598;28;20110;-60
2020/12/18 07:03:10;;;;;;;13.38;5.15;;;;;;;13.19;84.17;101824.34;5012728;28;20033;-60
2020/12/18 07:05:37;;;;;;;;;;;;;;;13.12;85.48;101835.00;5012798;28;20445;-60
2020/12/18 07:08:10;;;;;;;21.25;6.90;;;;;;;13.28;84.13;101812.44;5021813;28;19993;-61
2020/12/18 07:10:48;;;;;;;14.20;5.57;;;;;;;13.09;87.33;101830.00;5021791;28;20069;-62
2020/12/18 07:13:18;;;;;;;20.02;5.15;;;;;;;13.34;85.04;101838.53;5026052;28;20116;-59
2020/12/18 07:15:47;;;;;;;18.33;5.03;;;;;;;13.30;86.04;101831.91;5023025;28;20038;-60
2020/12/18 07:18:25;;;;;;;16.35;6.40;;;;;;;13.47;85.40;101837.06;5021748;28;20461;-59
2020/12/18 07:20:56;;;;;;;20.60;5.90;;;;;;;13.50;84.81;101828.63;5037599;28;20136;-60
2020/12/18 07:23:23;;;;;;;15.23;4.97;;;;;;;13.62;83.98;101821.75;5022846;28;20026;-59
2020/12/18 07:25:50;;;;;;;20.77;5.65;;;;;;;13.37;85.28;101836.50;5019157;28;20058;-60
2020/12/18 07:28:17;;;;;;;13.85;5.70;;;;;;;13.09;89.55;101839.91;5019974;28;20026;-60
2020/12/18 07:30:46;;;;;;;16.70;6.18;;;;;;;13.40;86.64;101857.66;5020966;28;20033;-60
2020/12/18 07:33:13;;;;;;;18.25;5.70;;;;;;;13.57;85.16;101839.44;5021918;28;20056;-60
2020/12/18 07:35:49;;;;;;;17.23;5.53;;;;;;;13.42;87.15;101852.91;5021369;28;20034;-60
2020/12/18 07:38:34;;;;;;;11.18;4.88;;;;;;;13.73;84.40;101849.97;5023612;28;20124;-60
2020/12/18 07:41:06;;;;;;;24.73;5.25;;;;;;;13.81;83.85;101848.97;5022225;28;20041;-59
2020/12/18 07:43:33;;;;;;;16.58;5.55;;;;;;;13.68;84.54;101851.56;5026746;28;20091;-62
2020/12/18 07:46:03;;;;;;;21.80;6.13;;;;;;;14.02;82.51;101860.75;5023279;28;20064;-60
2020/12/18 07:48:32;;;;;;;14.50;5.22;;;;;;;13.55;87.72;101858.44;5019785;28;20060;-55
2020/12/18 07:51:00;;;;;;;22.17;6.72;;;;;;;13.54;87.17;101866.72;5021245;28;20448;-60
2020/12/18 07:53:27;;;;;;;16.95;5.22;;;;;;;13.41;88.01;101880.81;5021753;28;20052;-61
2020/12/18 07:56:02;;;;;;;12.40;4.82;;;;;;;13.46;89.08;101883.78;5022510;28;20033;-59
2020/12/18 07:58:29;;;;;;;12.55;5.32;;;;;;;13.69;87.08;101855.91;5019978;28;20030;-60
2020/12/18 08:01:09;;;;;;;18.38;5.38;;;;;;;13.47;88.94;101875.50;5031512;28;20041;-60
2020/12/18 08:03:37;;;;;;;12.15;5.90;;;;;;;13.82;86.48;101876.72;5031196;28;20048;-61
2020/12/18 08:06:04;;;;;;;14.75;5.90;;;;;;;13.85;87.32;101890.63;5031393;28;20048;-61
2020/12/18 08:08:32;;;;;;;14.20;5.43;;;;;;;13.87;85.94;101893.09;5030775;28;20114;-61
2020/12/18 08:11:01;;;;;;;20.60;5.55;;;;;;;13.81;86.37;101892.00;5031033;28;20049;-60
2020/12/18 08:13:27;;;;;;;15.50;5.78;;;;;;;13.45;90.63;101892.88;5031149;28;20041;-60
2020/12/18 08:16:06;;;;;;;14.17;5.80;;;;;;;13.43;90.86;101914.53;5018974;28;20042;-60
2020/12/18 08:18:32;;;;;;;20.70;7.00;;;;;;;13.84;87.87;101909.63;5012412;28;20040;-52
2020/12/18 08:20:58;;;;;;;15.35;4.80;;;;;;;13.96;86.64;101904.56;5027181;28;20477;-60
2020/12/18 08:23:26;;;;;;;19.65;6.45;;;;;;;13.90;86.26;101896.25;5024543;28;20044;-60
2020/12/18 08:25:53;;;;;;;14.98;6.45;;;;;;;14.48;80.97;101892.59;5030327;28;20440;-61
2020/12/18 08:28:19;;;;;;;;;;;;;;;14.63;79.72;101908.63;5028485;28;20049;-60
2020/12/18 08:30:45;;;;;;;10.33;5.13;;;;;;;14.58;80.04;101900.31;5010720;28;19993;-61
2020/12/18 08:33:16;;;;;;;18.55;6.95;;;;;;;14.62;79.59;101906.16;5025476;28;20039;-59
2020/12/18 08:35:42;;;;;;;18.55;6.50;;;;;;;15.02;77.45;101913.69;5030602;28;20042;-60
2020/12/18 08:38:09;;;;;;;14.90;5.78;;;;;;;14.78;78.56;101929.28;5031095;28;20065;-61
2020/12/18 08:40:40;;;;;;;14.35;5.65;;;;;;;14.91;77.77;101915.06;5028686;28;20121;-55
2020/12/18 08:43:06;;;;;;;15.52;5.78;;;;;;;14.58;80.29;101912.97;5023456;28;20065;-61
2020/12/18 08:45:40;;;;;;;21.77;8.47;;;;;;;14.82;78.56;101902.78;5028984;28;20513;-58
2020/12/18 08:48:05;;;;;;;16.50;7.38;;;;;;;14.81;79.58;101898.44;5029109;28;20038;-61
2020/12/18 08:50:31;;;;;;;20.87;7.50;;;;;;;14.84;78.93;101906.13;5030134;28;20495;-60
2020/12/18 08:53:08;;;;;;;20.03;6.73;;;;;;;15.12;76.51;101908.78;5020086;28;20058;-58
2020/12/18 08:55:33;;;;;;;21.85;7.20;;;;;;;15.20;76.66;101905.91;5010234;28;20030;-61
2020/12/18 08:58:05;;;;;;;15.93;7.90;;;;;;;14.95;79.08;101900.16;5026782;28;20099;-60
2020/12/18 09:00:31;;;;;;;16.65;6.30;;;;;;;15.01;78.46;101894.00;5009760;28;20084;-60
2020/12/18 09:03:01;;;;;;;;;;;;;;;15.49;74.83;101908.50;4993533;28;20140;-60
2020/12/18 09:05:35;;;;;;;14.00;5.82;;;;;;;15.17;76.16;101889.28;5011370;28;19918;-61
2020/12/18 09:08:05;;;;;;;12.68;5.57;;;;;;;15.17;76.69;101911.69;5011031;28;20382;-60
2020/12/18 09:10:37;;;;;;;14.77;5.68;;;;;;;15.72;72.61;101901.94;5026360;28;20045;-61
2020/12/18 09:13:14;;;;;;;9.90;5.43;;;;;;;15.41;74.28;101900.59;5011170;28;20049;-62
2020/12/18 09:15:41;;;;;;;9.20;5.30;;;;;;;15.51;74.83;101897.50;5010456;28;20042;-60
2020/12/18 09:18:09;;;;;;;11.88;5.03;;;;;;;15.43;74.81;101895.81;5010838;28;20144;-59
2020/12/18 09:20:46;;;;;;;18.98;5.13;;;;;;;15.18;75.36;101901.72;5028955;28;20045;-61
2020/12/18 09:23:17;;;;;;;18.77;5.97;;;;;;;15.70;73.08;101894.03;5032901;28;20038;-60
2020/12/18 09:25:47;;;;;;;14.00;5.63;;;;;;;16.02;69.35;101904.28;5033563;28;20040;-60
2020/12/18 09:28:19;;;;;;;20.27;6.07;;;;;;;15.80;70.65;101893.66;5033211;28;20050;-60
2020/12/18 09:30:56;;;;;;;12.60;4.93;;;;;;;15.68;71.84;101895.25;5033716;28;20079;-61
2020/12/18 09:33:27;;;;;;;;;;;;;;;16.20;70.00;101904.53;5034692;28;20033;-61
2020/12/18 09:35:57;;;;;;;13.70;5.20;;;;;;;17.47;60.65;101874.72;5033625;28;20011;-61
2020/12/18 09:38:27;;;;;;;13.67;4.43;;;;;;;18.33;55.73;101896.81;5033713;28;20282;-61
2020/12/18 09:40:53;;;;;;;11.13;4.77;;;;;;;18.42;54.20;101889.25;5031992;28;20691;-60
2020/12/18 09:43:20;;;;;;;13.37;4.00;;;;;;;18.05;56.77;101889.16;5033718;28;20698;-60
2020/12/18 09:45:45;;;;;;;17.98;4.43;;;;;;;19.00;52.93;101892.66;5033346;28;20263;-60
2020/12/18 09:48:11;;;;;;;11.73;3.50;;;;;;;19.20;52.35;101886.97;5034227;28;20457;-60
2020/12/18 09:50:37;;;;;;;14.73;3.90;;;;;;;19.21;51.05;101895.94;5032627;28;20655;-61
2020/12/18 09:53:04;;;;;;;8.50;3.17;;;;;;;19.35;50.52;101883.84;5031341;28;20291;-61
2020/12/18 09:55:29;;;;;;;11.00;3.50;;;;;;;19.28;50.30;101887.72;5032444;28;20110;-61
2020/12/18 09:57:55;;;;;;;11.17;3.73;;;;;;;19.45;50.83;101890.63;5033829;28;20798;-61
2020/12/18 10:00:20;;;;;;;7.97;3.40;;;;;;;19.60;49.97;101882.88;5033816;28;20293;-61
2020/12/18 10:02:46;;;;;;;13.63;3.67;;;;;;;20.04;47.56;101879.97;5033182;28;20469;-60
2020/12/18 10:05:11;;;;;;;9.30;3.10;;;;;;;20.51;46.49;101899.22;5033642;28;20103;-61
2020/12/18 10:07:37;;;;;;;9.03;3.13;;;;;;;19.93;49.14;101899.75;5034137;28;20052;-61
2020/12/18 10:10:03;;;;;;;10.10;4.20;;;;;;;20.42;47.91;101902.31;5033107;28;20037;-61
2020/12/18 10:12:28;;;;;;;7.50;2.85;;;;;;;20.52;47.31;101890.84;5033605;28;20274;-61
2020/12/18 10:14:54;;;;;;;9.13;3.33;;;;;;;19.47;49.22;101888.53;5031605;28;20045;-60
2020/12/18 10:17:19;;;;;;;9.23;3.93;;;;;;;19.83;50.94;101872.34;5033046;28;20061;-61
2020/12/18 10:19:45;;;;;;;10.95;3.35;;;;;;;20.35;48.24;101877.16;5032745;28;20120;-60
2020/12/18 10:22:10;;;;;;;8.45;3.40;;;;;;;18.90;52.47;101900.44;5033017;28;20140;-61
2020/12/18 10:24:36;;;;;;;7.00;3.30;;;;;;;19.51;51.35;101883.47;5033110;28;20030;-62
2020/12/18 10:27:01;;;;;;;9.37;3.83;;;;;;;19.35;53.01;101894.69;5032234;28;20279;-60
2020/12/18 10:29:27;;;;;;;10.17;3.63;;;;;;;19.67;50.34;101879.28;5032912;28;20041;-61
2020/12/18 10:31:56;;;;;;;7.78;3.20;;;;;;;18.74;53.91;101877.47;5031944;28;20297;-60
2020/12/18 10:34:22;;;;;;;10.37;3.67;;;;;;;18.10;57.74;101880.34;5032629;28;20042;-61
2020/12/18 10:36:49;;;;;;;12.07;4.00;;;;;;;17.99;59.32;101862.91;5031992;28;20267;-60
2020/12/18 10:39:15;;;;;;;12.63;3.73;;;;;;;19.04;54.01;101871.34;5032773;28;20037;-60
2020/12/18 10:41:41;;;;;;;10.80;3.65;;;;;;;20.25;49.21;101852.47;5032419;28;20262;-61
2020/12/18 10:44:06;;;;;;;11.37;3.97;;;;;;;20.63;46.77;101854.69;5032080;28;20044;-60
2020/12/18 10:46:33;;;;;;;9.93;3.40;;;;;;;20.35;47.69;101874.44;5031008;28;20048;-61
2020/12/18 10:48:58;;;;;;;8.00;3.53;;;;;;;20.34;47.17;101846.44;5031944;28;20040;-60
2020/12/18 10:51:24;;;;;;;11.63;4.00;;;;;;;19.63;50.29;101851.75;5031994;28;20263;-60
2020/12/18 10:53:49;;;;;;;14.67;3.93;;;;;;;20.22;47.50;101842.06;5031523;28;20045;-60
2020/12/18 10:56:15;;;;;;;11.87;3.93;;;;;;;21.09;45.01;101855.91;5031139;28;20041;-65
2020/12/18 10:58:40;;;;;;;12.82;3.80;;;;;;;20.17;47.21;101848.22;5031022;28;20271;-61
2020/12/18 11:01:06;;;;;;;7.10;3.20;;;;;;;20.18;47.26;101841.72;5013853;28;20050;-61
2020/12/18 11:03:31;;;;;;;12.40;3.23;;;;;;;20.95;45.21;101839.88;5031968;28;20266;-62
2020/12/18 11:05:57;;;;;;;11.23;4.57;;;;;;;21.44;43.70;101822.28;5032021;28;20371;-61
2020/12/18 11:08:22;;;;;;;10.00;3.83;;;;;;;21.11;43.98;101837.47;5033028;28;20432;-60
2020/12/18 11:10:47;;;;;;;5.55;3.25;;;;;;;21.11;44.44;101834.75;5030482;28;20026;-58
2020/12/18 11:13:13;;;;;;;7.30;2.73;;;;;;;21.18;44.25;101829.97;5032160;28;20449;-60
2020/12/18 11:15:38;;;;;;;12.63;3.60;;;;;;;21.60;42.97;101824.22;5031942;28;20056;-61
2020/12/18 11:18:04;;;;;;;16.37;4.20;;;;;;;21.27;43.26;101830.41;5031328;28;20038;-61
2020/12/18 11:20:29;;;;;;;7.97;3.10;;;;;;;20.88;43.74;101817.44;5031831;28;20702;-61
2020/12/18 11:22:55;;;;;;;6.23;3.00;;;;;;;21.82;42.49;101815.34;5031115;28;20075;-60
2020/12/18 11:25:20;;;;;;;8.50;3.20;;;;;;;22.03;41.93;101804.78;5032118;28;20281;-60
2020/12/18 11:27:46;;;;;;;8.30;2.97;;;;;;;22.16;41.41;101793.53;5031911;28;20306;-60
2020/12/18 11:30:11;;;;;;;11.27;3.05;;;;;;;22.63;40.06;101796.91;5031036;28;20261;-59
2020/12/18 11:32:37;;;;;;;13.77;3.03;;;;;;;22.47;40.54;101802.16;5030532;28;20038;-60
2020/12/18 11:35:03;;;;;;;9.60;3.27;;;;;;;21.91;41.51;101786.63;5031289;28;20281;-60
2020/12/18 11:37:29;;;;;;;6.93;2.90;;;;;;;21.48;42.70;101782.66;5030529;28;20275;-60